Airfield :







YOU CAN JOIN US ON...

 
LOGIN :

Register | Disclaimer

   EN    FR    IT 

 









Legend :    VFR   Marginal VFR   IFR   Intensive IFR   Very Intensive IFR
Visi :
Ceiling :
>= 8 km
>= 3000ft
5 to 8 km
1000 to 3000 ft
1500m to 5 km
500 to 1000 ft
800 to 1500m
200 to 500 ft
< 800m
< 200 ft
Symbols :   Thunderstorms  Fog  Heavy snow  Heavy precipitations  Wind > 20 kt







- Airport Elevation : 534 ft
- IATA code : PQI


KPQI - Northern Maine Regional Arpt At Presque Isle

CURRENT METAR :
  • 211056Z AUTO 33004KT 10SM CLR 12/09 A3013 RMK AO2 SLP230 T01170089

EXPIRED METARs :
  • 210956Z AUTO 32005KT 10SM CLR 13/09 A3011 RMK AO2 SLP221 T01280094
  • 210856Z AUTO 33010KT 10SM CLR 13/11 A3010 RMK AO2 SLP216 T01330111 51015

TAF KPQI
Valid from the 21 at 06:00 until the 22 at 06:00 UTC


210532Z 2106/2206 32004KT P6SM SKC
FM211200 33006KT P6SM SKC
FM220500 17003KT P6SM FEW250
No reported NOTAMs for that airfield.



MET'MAP, your aeronautical weather chart ! - Copyright ORBIFLY December 2007 - Disclaimer

ORBIFLY MET'MAP TEAM :

Programming & Development : Alexandra Zaïnal
Concept & Development : Baudouin d'Aumeries
Co-Development & Prog : Marc-Olivier Méhu
Technical & hardware support : Manuel Goepfert

Contact : metmap@orbifly.com




SOURCES & CREDITS :

   NOAA